createdAt,value
2022-10-23T00:01:15.761Z,57.80
2022-10-23T00:04:04.558Z,54.50
2022-10-23T00:06:47.438Z,74.90
2022-10-23T00:09:29.235Z,62.60
2022-10-23T00:12:10.922Z,69.20
2022-10-23T00:14:52.557Z,58.20
2022-10-23T00:17:35.328Z,59.70
2022-10-23T00:20:17.530Z,62.40
2022-10-23T00:22:59.323Z,72.20
2022-10-23T00:25:40.962Z,66.80
2022-10-23T00:28:22.704Z,100.20
2022-10-23T00:31:05.851Z,68.60
2022-10-23T00:33:48.793Z,73.40
2022-10-23T00:36:30.544Z,70.90
2022-10-23T00:39:12.336Z,63.40
2022-10-23T00:41:54.027Z,74.20
2022-10-23T00:44:35.718Z,70.80
2022-10-23T00:47:18.535Z,69.20
2022-10-23T00:50:01.967Z,70.10
2022-10-23T00:52:50.928Z,63.20
2022-10-23T00:55:34.052Z,73.80
2022-10-23T00:58:17.809Z,71.60
2022-10-23T01:01:00.635Z,69.50
2022-10-23T01:03:42.629Z,63.60
2022-10-23T01:06:51.025Z,71.20
2022-10-23T01:09:44.697Z,73.40
2022-10-23T01:12:34.998Z,65.90
2022-10-23T01:15:42.178Z,72.60
2022-10-23T01:18:30.391Z,70.30
2022-10-23T01:21:23.379Z,64.60
2022-10-23T01:24:37.603Z,70.00
2022-10-23T01:27:23.521Z,69.60
2022-10-23T01:30:12.277Z,68.40
2022-10-23T01:33:09.967Z,72.40
2022-10-23T01:36:06.970Z,67.50
2022-10-23T01:42:06.729Z,66.10
2022-10-23T01:44:57.227Z,53.70
2022-10-23T01:50:25.215Z,61.60
2022-10-23T01:53:13.971Z,53.80
2022-10-23T01:55:56.803Z,53.20
2022-10-23T01:58:44.739Z,52.80
2022-10-23T02:01:29.487Z,51.40
2022-10-23T02:04:15.699Z,52.40
2022-10-23T02:06:57.686Z,55.40
2022-10-23T02:09:39.887Z,57.50
2022-10-23T02:12:43.492Z,60.20
2022-10-23T02:15:47.201Z,55.80
2022-10-23T02:18:41.894Z,59.50
2022-10-23T02:21:39.459Z,56.90
2022-10-23T02:24:36.714Z,48.10
2022-10-23T02:27:28.986Z,55.60
2022-10-23T02:30:18.117Z,51.60
2022-10-23T02:33:05.953Z,43.90
2022-10-23T02:35:48.669Z,43.90
2022-10-23T02:38:41.490Z,45.50
2022-10-23T02:41:45.124Z,46.30
2022-10-23T02:44:59.075Z,49.00
2022-10-23T02:47:56.123Z,45.50
2022-10-23T02:50:50.782Z,45.10
2022-10-23T02:53:48.574Z,44.30
2022-10-23T02:56:40.312Z,39.30
2022-10-23T02:59:42.176Z,47.50
2022-10-23T03:02:49.672Z,45.40
2022-10-23T03:05:36.077Z,57.00
2022-10-23T03:08:17.971Z,56.20
2022-10-23T03:10:59.763Z,50.00
2022-10-23T03:13:42.683Z,49.00
2022-10-23T03:16:25.501Z,49.80
2022-10-23T03:19:09.081Z,49.40
2022-10-23T03:21:51.237Z,48.30
2022-10-23T03:24:33.645Z,45.60
2022-10-23T03:27:16.608Z,48.70
2022-10-23T03:29:58.361Z,46.90
2022-10-23T03:32:40.313Z,47.60
2022-10-23T03:35:22.151Z,46.70
2022-10-23T03:38:03.840Z,43.80
2022-10-23T03:40:45.531Z,41.10
2022-10-23T03:43:27.433Z,53.00
2022-10-23T03:46:12.707Z,47.30
2022-10-23T03:48:55.623Z,46.00
2022-10-23T03:51:37.414Z,45.50
2022-10-23T03:54:21.665Z,44.00
2022-10-23T03:57:03.460Z,41.50
2022-10-23T03:59:45.662Z,45.00
2022-10-23T04:02:27.482Z,42.60
2022-10-23T04:05:09.659Z,41.10
2022-10-23T04:07:52.784Z,44.50
2022-10-23T04:10:34.575Z,42.10
2022-10-23T04:13:16.267Z,52.80
2022-10-23T04:15:57.957Z,45.60
2022-10-23T04:18:42.924Z,50.50
2022-10-23T04:21:25.333Z,48.50
2022-10-23T04:24:07.437Z,53.40
2022-10-23T04:26:49.125Z,49.90
2022-10-23T04:29:32.671Z,55.90
2022-10-23T04:32:14.350Z,56.20
2022-10-23T04:34:58.804Z,43.30
2022-10-23T04:37:41.024Z,50.60
2022-10-23T04:40:23.108Z,51.80
2022-10-23T04:43:07.769Z,62.30
2022-10-23T04:45:52.435Z,56.20
2022-10-23T04:48:35.783Z,44.10
2022-10-23T04:51:38.339Z,48.20
2022-10-23T04:54:36.928Z,50.50
2022-10-23T04:57:35.411Z,47.40
2022-10-23T05:00:20.793Z,47.90
2022-10-23T05:03:05.859Z,46.10
2022-10-23T05:05:56.417Z,51.10
2022-10-23T05:08:43.650Z,49.30
2022-10-23T05:11:34.487Z,49.10
2022-10-23T05:14:22.708Z,50.20
2022-10-23T05:17:11.782Z,51.00
2022-10-23T05:19:55.877Z,49.90
2022-10-23T05:22:40.191Z,55.80
2022-10-23T05:25:25.262Z,52.40
2022-10-23T05:28:15.861Z,55.10
2022-10-23T05:30:59.907Z,51.70
2022-10-23T05:33:44.144Z,53.60
2022-10-23T05:36:27.542Z,55.50
2022-10-23T05:39:11.942Z,51.80
2022-10-23T05:41:55.172Z,46.90
2022-10-23T05:44:39.421Z,54.00
2022-10-23T05:47:53.933Z,51.70
2022-10-23T05:51:20.397Z,53.10
2022-10-23T05:54:08.462Z,58.70
2022-10-23T05:56:56.982Z,63.90
2022-10-23T06:02:38.803Z,51.40
2022-10-23T06:05:25.816Z,55.60
2022-10-23T06:08:26.377Z,53.80
2022-10-23T06:11:13.626Z,54.20
2022-10-23T06:16:44.767Z,49.00
2022-10-23T06:19:26.862Z,53.40
2022-10-23T06:22:10.951Z,53.80
2022-10-23T06:25:01.200Z,55.80
2022-10-23T06:27:44.646Z,54.30
2022-10-23T06:30:26.500Z,54.00
2022-10-23T06:33:08.322Z,52.60
2022-10-23T06:35:50.319Z,52.80
2022-10-23T06:38:37.650Z,51.10
2022-10-23T06:41:21.689Z,48.40
2022-10-23T06:44:12.117Z,51.30
2022-10-23T06:46:57.871Z,55.50
2022-10-23T06:50:15.681Z,49.40
2022-10-23T06:52:58.833Z,49.70
2022-10-23T06:55:41.550Z,49.10
2022-10-23T06:58:24.160Z,44.10
2022-10-23T07:01:18.728Z,48.90
2022-10-23T07:04:00.755Z,42.70
2022-10-23T07:06:43.058Z,46.00
2022-10-23T07:09:25.055Z,42.90
2022-10-23T07:12:06.951Z,45.10
2022-10-23T07:14:56.834Z,47.00
2022-10-23T07:17:57.673Z,50.70
2022-10-23T07:20:41.612Z,48.30
2022-10-23T07:23:23.718Z,42.80
2022-10-23T07:26:08.485Z,44.00
2022-10-23T07:28:55.193Z,54.30
2022-10-23T07:31:37.702Z,50.00
2022-10-23T07:34:38.539Z,49.70
2022-10-23T07:37:35.385Z,51.00
2022-10-23T07:40:19.228Z,52.60
2022-10-23T07:43:01.225Z,51.20
2022-10-23T07:45:43.223Z,54.00
2022-10-23T07:48:32.082Z,56.20
2022-10-23T07:51:16.335Z,56.00
2022-10-23T07:54:00.690Z,50.30
2022-10-23T07:57:17.807Z,51.90
2022-10-23T08:00:11.931Z,53.00
2022-10-23T08:02:56.754Z,49.10
2022-10-23T08:05:39.265Z,49.30
2022-10-23T08:08:22.698Z,51.30
2022-10-23T08:11:05.720Z,51.80
2022-10-23T08:13:57.758Z,48.60
2022-10-23T08:16:41.500Z,55.70
2022-10-23T08:19:29.429Z,49.70
2022-10-23T08:22:12.348Z,50.50
2022-10-23T08:24:54.669Z,47.90
2022-10-23T08:27:38.738Z,51.90
2022-10-23T08:30:20.799Z,46.40
2022-10-23T08:33:07.303Z,50.70
2022-10-23T08:35:50.043Z,46.50
2022-10-23T08:38:40.029Z,42.60
2022-10-23T08:41:44.215Z,44.90
2022-10-23T08:44:56.406Z,50.10
2022-10-23T08:47:41.911Z,50.50
2022-10-23T08:51:01.695Z,53.20
2022-10-23T08:54:24.307Z,38.90
2022-10-23T08:57:19.930Z,39.50
2022-10-23T09:00:09.221Z,51.20
2022-10-23T09:02:54.698Z,45.50
2022-10-23T09:06:01.312Z,44.10
2022-10-23T09:09:57.392Z,37.10
2022-10-23T09:12:53.436Z,41.20
2022-10-23T09:15:42.510Z,44.70
2022-10-23T09:18:24.919Z,46.50
2022-10-23T09:21:10.507Z,47.80
2022-10-23T09:23:52.396Z,58.60
2022-10-23T09:26:34.394Z,59.00
2022-10-23T09:29:30.192Z,55.50
2022-10-23T09:32:12.112Z,49.10
2022-10-23T09:34:55.650Z,49.10
2022-10-23T09:37:46.631Z,54.40
2022-10-23T09:40:36.850Z,49.20
2022-10-23T09:43:23.418Z,53.20
2022-10-23T09:46:07.375Z,46.40
2022-10-23T09:49:00.877Z,45.10
2022-10-23T09:51:57.811Z,46.60
2022-10-23T09:54:46.555Z,43.40
2022-10-23T09:57:43.142Z,38.80
2022-10-23T10:00:27.872Z,43.90
2022-10-23T10:03:23.285Z,42.70
2022-10-23T10:06:29.015Z,49.60
2022-10-23T10:09:15.897Z,48.10
2022-10-23T10:12:19.763Z,57.20
2022-10-23T10:15:07.941Z,56.00
2022-10-23T10:18:26.048Z,50.80
2022-10-23T10:21:13.577Z,53.60
2022-10-23T10:24:06.007Z,59.90
2022-10-23T10:27:07.376Z,83.20
2022-10-23T10:29:58.279Z,102.60
2022-10-23T10:32:59.629Z,80.50
2022-10-23T10:39:23.020Z,63.90
2022-10-23T10:42:36.761Z,62.60
2022-10-23T10:45:20.603Z,69.20
2022-10-23T10:48:30.350Z,52.60
2022-10-23T10:51:43.475Z,48.50
2022-10-23T10:54:34.386Z,46.90
2022-10-23T10:57:28.943Z,45.80
2022-10-23T11:00:20.486Z,47.30
2022-10-23T11:03:25.641Z,44.20
2022-10-23T11:06:15.320Z,44.00
2022-10-23T11:09:19.252Z,43.80
2022-10-23T11:12:02.464Z,47.80
2022-10-23T11:14:45.436Z,49.90
2022-10-23T11:17:35.977Z,46.30
2022-10-23T11:21:39.723Z,47.70
2022-10-23T11:24:45.405Z,66.10
2022-10-23T11:27:47.311Z,49.40
2022-10-23T11:30:59.645Z,46.80
2022-10-23T11:34:19.710Z,48.80
2022-10-23T11:37:09.186Z,46.50
2022-10-23T11:40:09.511Z,49.00
2022-10-23T11:42:52.257Z,36.00
2022-10-23T11:45:40.280Z,43.30
2022-10-23T11:48:36.907Z,33.10
2022-10-23T11:51:34.679Z,37.40
2022-10-23T11:54:26.287Z,44.50
2022-10-23T11:57:10.402Z,34.60
2022-10-23T11:59:56.030Z,36.90
2022-10-23T12:02:42.195Z,40.10
2022-10-23T12:05:37.948Z,53.10
2022-10-23T12:08:27.142Z,42.70
2022-10-23T12:11:42.693Z,49.60
2022-10-23T12:14:26.028Z,36.40
2022-10-23T12:17:23.184Z,37.80
2022-10-23T12:20:08.455Z,36.90
2022-10-23T12:23:21.277Z,32.50
2022-10-23T12:26:09.904Z,28.70
2022-10-23T12:29:30.944Z,29.00
2022-10-23T12:32:52.526Z,32.30
2022-10-23T12:35:37.335Z,28.40
2022-10-23T12:38:24.522Z,30.70
2022-10-23T12:41:13.282Z,33.30
2022-10-23T12:43:59.199Z,26.80
2022-10-23T12:46:43.657Z,24.30
2022-10-23T12:49:28.430Z,24.40
2022-10-23T12:52:19.122Z,29.30
2022-10-23T12:55:12.797Z,28.70
2022-10-23T12:57:56.632Z,25.50
2022-10-23T13:00:38.836Z,24.30
2022-10-23T13:03:23.035Z,22.30
2022-10-23T13:06:05.398Z,24.70
2022-10-23T13:08:49.029Z,22.20
2022-10-23T13:11:56.943Z,21.70
2022-10-23T13:14:44.635Z,20.20
2022-10-23T13:18:00.366Z,37.10
2022-10-23T13:20:55.401Z,22.90
2022-10-23T13:23:40.329Z,22.30
2022-10-23T13:26:45.411Z,22.40
2022-10-23T13:29:34.945Z,20.00
2022-10-23T13:32:30.558Z,18.90
2022-10-23T13:35:22.489Z,18.10
2022-10-23T13:38:09.198Z,16.70
2022-10-23T13:40:58.364Z,16.10
2022-10-23T13:43:40.976Z,17.20
2022-10-23T13:46:27.717Z,17.30
2022-10-23T13:49:09.890Z,19.00
2022-10-23T13:51:54.946Z,17.70
2022-10-23T13:54:36.858Z,21.50
2022-10-23T13:57:18.958Z,14.90
2022-10-23T14:00:00.849Z,17.00
2022-10-23T14:02:43.362Z,16.30
2022-10-23T14:05:25.358Z,21.80
2022-10-23T14:08:07.355Z,17.40
2022-10-23T14:10:49.253Z,15.50
2022-10-23T14:13:32.171Z,15.40
2022-10-23T14:16:16.199Z,15.90
2022-10-23T14:18:58.214Z,15.40
2022-10-23T14:21:40.216Z,15.40
2022-10-23T14:24:22.215Z,15.60
2022-10-23T14:27:04.518Z,15.20
2022-10-23T14:29:46.720Z,14.60
2022-10-23T14:32:28.718Z,14.80
2022-10-23T14:35:10.715Z,15.10
2022-10-23T14:37:52.682Z,15.70
2022-10-23T14:40:38.877Z,15.70
2022-10-23T14:43:21.523Z,15.90
2022-10-23T14:46:18.016Z,16.40
2022-10-23T14:49:02.305Z,18.50
2022-10-23T14:51:44.925Z,16.50
2022-10-23T14:54:28.460Z,18.00
2022-10-23T14:57:12.403Z,15.40
2022-10-23T14:59:54.254Z,20.30
2022-10-23T15:02:36.297Z,16.80
2022-10-23T15:05:18.807Z,16.70
2022-10-23T15:08:01.931Z,17.10
2022-10-23T15:10:43.827Z,23.10
2022-10-23T15:13:29.055Z,20.00
2022-10-23T15:16:11.102Z,20.70
2022-10-23T15:18:53.304Z,26.50
2022-10-23T15:21:35.301Z,19.10
2022-10-23T15:24:18.535Z,21.40
2022-10-23T15:27:02.276Z,23.50
2022-10-23T15:29:44.880Z,18.70
2022-10-23T15:32:27.082Z,22.90
2022-10-23T15:35:09.286Z,23.40
2022-10-23T15:37:51.386Z,23.40
2022-10-23T15:40:33.795Z,22.80
2022-10-23T15:43:16.713Z,23.90
2022-10-23T15:45:58.609Z,28.20
2022-10-23T15:48:40.815Z,27.00
2022-10-23T15:51:23.323Z,30.00
2022-10-23T15:54:10.774Z,30.30
2022-10-23T15:56:54.195Z,26.50
2022-10-23T15:59:36.279Z,39.90
2022-10-23T16:02:18.243Z,37.40
2022-10-23T16:05:00.583Z,33.60
2022-10-23T16:07:42.437Z,32.80
2022-10-23T16:10:25.194Z,36.30
2022-10-23T16:13:07.090Z,32.90
2022-10-23T16:15:49.701Z,34.20
2022-10-23T16:18:31.802Z,39.40
2022-10-23T16:21:23.145Z,50.20
2022-10-23T16:24:07.754Z,46.10
2022-10-23T16:26:53.425Z,51.60
2022-10-23T16:32:59.343Z,41.10
2022-10-23T16:35:41.238Z,42.50
2022-10-23T16:38:27.795Z,35.50
2022-10-23T16:41:09.740Z,40.50
2022-10-23T16:44:10.477Z,36.50
2022-10-23T16:47:06.197Z,37.90
2022-10-23T16:49:48.092Z,35.80
2022-10-23T16:52:30.270Z,37.10
2022-10-23T16:55:13.730Z,37.20
2022-10-23T16:57:57.058Z,39.60
2022-10-23T17:00:39.057Z,39.60
2022-10-23T17:03:20.949Z,38.50
2022-10-23T17:06:10.274Z,46.00
2022-10-23T17:08:55.698Z,35.90
2022-10-23T17:11:40.118Z,36.40
2022-10-23T17:14:25.225Z,36.40
2022-10-23T17:17:09.987Z,36.50
2022-10-23T17:19:51.985Z,38.60
2022-10-23T17:22:35.726Z,37.20
2022-10-23T17:25:17.824Z,36.70
2022-10-23T17:28:02.814Z,44.80
2022-10-23T17:30:44.995Z,70.00
2022-10-23T17:33:26.893Z,93.60
2022-10-23T17:36:09.716Z,128.30
2022-10-23T17:38:51.913Z,158.10
2022-10-23T17:41:34.934Z,165.10
2022-10-23T17:44:16.727Z,165.50
2022-10-23T17:46:58.828Z,126.00
2022-10-23T17:49:42.858Z,89.30
2022-10-23T17:52:27.636Z,78.60
2022-10-23T17:55:09.941Z,62.30
2022-10-23T17:57:51.632Z,57.40
2022-10-23T18:00:36.810Z,52.20
2022-10-23T18:03:19.826Z,47.50
2022-10-23T18:06:15.239Z,46.30
2022-10-23T18:08:57.546Z,60.30
2022-10-23T18:11:46.954Z,59.10
2022-10-23T18:17:18.083Z,66.30
2022-10-23T18:20:02.170Z,69.80
2022-10-23T18:22:45.449Z,63.60
2022-10-23T18:25:27.482Z,68.30
2022-10-23T18:28:09.656Z,59.30
2022-10-23T18:30:56.082Z,59.80
2022-10-23T18:33:40.366Z,61.60
2022-10-23T18:36:25.419Z,53.90
2022-10-23T18:39:11.372Z,56.10
2022-10-23T18:41:56.406Z,53.50
2022-10-23T18:44:38.438Z,54.60
2022-10-23T18:47:20.243Z,46.60
2022-10-23T18:50:02.349Z,48.90
2022-10-23T18:52:44.740Z,43.60
2022-10-23T18:55:26.454Z,42.00
2022-10-23T18:58:08.738Z,36.50
2022-10-23T19:00:50.837Z,37.80
2022-10-23T19:03:33.857Z,40.90
2022-10-23T19:06:17.894Z,34.30
2022-10-23T19:08:59.905Z,39.80
2022-10-23T19:11:43.447Z,35.30
2022-10-23T19:14:27.995Z,34.30
2022-10-23T19:17:13.682Z,38.20
2022-10-23T19:20:06.296Z,38.30
2022-10-23T19:22:51.335Z,36.60
2022-10-23T19:25:34.624Z,41.00
2022-10-23T19:28:16.465Z,40.90
2022-10-23T19:31:01.842Z,36.00
2022-10-23T19:33:44.828Z,36.10
2022-10-23T19:36:27.864Z,31.70
2022-10-23T19:39:09.530Z,30.80
2022-10-23T19:41:51.827Z,32.10
2022-10-23T19:44:33.630Z,34.30
2022-10-23T19:47:15.525Z,31.50
2022-10-23T19:49:57.318Z,36.00
2022-10-23T19:52:39.524Z,37.00
2022-10-23T19:55:21.232Z,35.80
2022-10-23T19:58:02.983Z,34.50
2022-10-23T20:00:44.900Z,36.60
2022-10-23T20:03:26.592Z,31.90
2022-10-23T20:06:14.336Z,36.90
2022-10-23T20:08:56.733Z,44.50
2022-10-23T20:11:40.207Z,34.60
2022-10-23T20:14:24.491Z,39.20
2022-10-23T20:17:11.197Z,37.00
2022-10-23T20:19:58.804Z,39.30
2022-10-23T20:22:44.173Z,35.90
2022-10-23T20:25:29.627Z,39.80
2022-10-23T20:28:14.369Z,35.70
2022-10-23T20:30:57.190Z,41.70
2022-10-23T20:33:41.032Z,38.30
2022-10-23T20:36:31.324Z,40.20
2022-10-23T20:39:19.443Z,34.80
2022-10-23T20:42:02.797Z,40.80
2022-10-23T20:44:44.614Z,39.00
2022-10-23T20:47:26.279Z,38.30
2022-10-23T20:50:08.754Z,40.40
2022-10-23T20:52:50.952Z,39.80
2022-10-23T20:55:32.684Z,44.00
2022-10-23T20:58:14.375Z,41.00
2022-10-23T21:00:57.483Z,39.50
2022-10-23T21:03:39.807Z,41.10
2022-10-23T21:06:21.968Z,38.40
2022-10-23T21:09:06.194Z,43.30
2022-10-23T21:11:48.007Z,42.30
2022-10-23T21:14:29.694Z,43.00
2022-10-23T21:17:16.666Z,43.90
2022-10-23T21:19:58.448Z,40.80
2022-10-23T21:22:40.246Z,42.60
2022-10-23T21:25:22.036Z,41.10
2022-10-23T21:28:04.241Z,38.40
2022-10-23T21:30:45.929Z,40.80
2022-10-23T21:33:29.156Z,37.30
2022-10-23T21:36:17.592Z,41.40
2022-10-23T21:39:01.863Z,43.80
2022-10-23T21:41:43.651Z,37.50
2022-10-23T21:44:25.347Z,47.80
2022-10-23T21:47:07.134Z,44.70
2022-10-23T21:49:48.832Z,48.20
2022-10-23T21:52:30.619Z,42.20
2022-10-23T21:55:12.311Z,45.10
2022-10-23T21:57:54.309Z,42.20
2022-10-23T22:00:35.999Z,45.10
2022-10-23T22:03:17.691Z,43.90
2022-10-23T22:05:59.381Z,46.90
2022-10-23T22:08:41.030Z,44.20
2022-10-23T22:11:23.278Z,41.40
2022-10-23T22:14:05.067Z,45.70
2022-10-23T22:16:47.782Z,51.40
2022-10-23T22:19:29.476Z,46.80
2022-10-23T22:22:11.266Z,44.20
2022-10-23T22:24:52.958Z,44.20
2022-10-23T22:27:34.650Z,44.10
2022-10-23T22:30:16.446Z,46.30
2022-10-23T22:32:58.134Z,45.40
2022-10-23T22:35:39.825Z,46.80
2022-10-23T22:38:21.515Z,48.80
2022-10-23T22:41:04.548Z,49.60
2022-10-23T22:43:46.330Z,51.90
2022-10-23T22:46:29.353Z,45.30
2022-10-23T22:49:11.049Z,45.40
2022-10-23T22:51:52.836Z,43.20
2022-10-23T22:54:34.628Z,42.10
2022-10-23T22:57:16.413Z,45.10
2022-10-23T22:59:58.219Z,41.70
2022-10-23T23:02:39.907Z,43.90
2022-10-23T23:05:21.718Z,41.10
2022-10-23T23:08:03.493Z,42.30
2022-10-23T23:10:52.829Z,44.20
2022-10-23T23:13:35.578Z,48.00
2022-10-23T23:16:29.764Z,47.80
2022-10-23T23:19:11.557Z,46.00
2022-10-23T23:21:58.060Z,45.30
2022-10-23T23:24:39.752Z,43.70
2022-10-23T23:27:21.543Z,43.00
2022-10-23T23:30:05.794Z,41.30
2022-10-23T23:32:48.512Z,44.10
2022-10-23T23:35:30.406Z,39.00
2022-10-23T23:38:13.427Z,42.40
2022-10-23T23:40:55.224Z,40.50
2022-10-23T23:43:36.920Z,42.00
2022-10-23T23:46:18.713Z,35.30
2022-10-23T23:49:00.396Z,39.70
2022-10-23T23:51:42.395Z,36.60
2022-10-23T23:54:24.187Z,36.50
2022-10-23T23:57:06.390Z,33.80
2022-10-23T23:59:48.183Z,44.20
